sensor_id;sensor_type;location;lat;lon;timestamp;pressure;altitude;pressure_sealevel;temperature;humidity
13348;BME280;6743;49.934;9.138;2022-12-29T00:01:41;99813.13;;;9.86;100.00
13348;BME280;6743;49.934;9.138;2022-12-29T00:04:09;99807.47;;;9.89;100.00
13348;BME280;6743;49.934;9.138;2022-12-29T00:06:37;99803.66;;;9.92;100.00
13348;BME280;6743;49.934;9.138;2022-12-29T00:09:03;99805.47;;;9.91;100.00
13348;BME280;6743;49.934;9.138;2022-12-29T00:11:29;99802.84;;;9.91;100.00
13348;BME280;6743;49.934;9.138;2022-12-29T00:13:56;99804.66;;;9.91;100.00
13348;BME280;6743;49.934;9.138;2022-12-29T00:16:41;99805.97;;;9.95;100.00
13348;BME280;6743;49.934;9.138;2022-12-29T00:19:10;99785.63;;;9.87;100.00
13348;BME280;6743;49.934;9.138;2022-12-29T00:21:57;99798.62;;;10.05;100.00
13348;BME280;6743;49.934;9.138;2022-12-29T00:24:42;99801.09;;;10.14;100.00
13348;BME280;6743;49.934;9.138;2022-12-29T00:27:26;99792.81;;;10.17;100.00
13348;BME280;6743;49.934;9.138;2022-12-29T00:30:15;99798.78;;;10.19;100.00
13348;BME280;6743;49.934;9.138;2022-12-29T00:33:00;99788.81;;;10.21;100.00
13348;BME280;6743;49.934;9.138;2022-12-29T00:35:47;99787.63;;;10.24;100.00
13348;BME280;6743;49.934;9.138;2022-12-29T00:38:17;99795.59;;;10.24;100.00
13348;BME280;6743;49.934;9.138;2022-12-29T00:41:02;99793.44;;;10.27;100.00
13348;BME280;6743;49.934;9.138;2022-12-29T00:43:46;99793.56;;;10.34;100.00
13348;BME280;6743;49.934;9.138;2022-12-29T00:46:31;99788.72;;;10.38;100.00
13348;BME280;6743;49.934;9.138;2022-12-29T00:48:57;99792.56;;;10.35;100.00
13348;BME280;6743;49.934;9.138;2022-12-29T00:51:42;99801.19;;;10.37;100.00
13348;BME280;6743;49.934;9.138;2022-12-29T00:54:08;99799.00;;;10.41;100.00
13348;BME280;6743;49.934;9.138;2022-12-29T00:56:34;99812.06;;;10.42;100.00
13348;BME280;6743;49.934;9.138;2022-12-29T00:59:01;99799.66;;;10.43;100.00
13348;BME280;6743;49.934;9.138;2022-12-29T01:01:27;99821.03;;;10.41;100.00
13348;BME280;6743;49.934;9.138;2022-12-29T01:03:53;99824.34;;;10.43;100.00
13348;BME280;6743;49.934;9.138;2022-12-29T01:06:19;99806.28;;;10.39;100.00
13348;BME280;6743;49.934;9.138;2022-12-29T01:08:45;99820.38;;;10.39;100.00
13348;BME280;6743;49.934;9.138;2022-12-29T01:11:12;99818.25;;;10.35;100.00
13348;BME280;6743;49.934;9.138;2022-12-29T01:13:38;99804.88;;;10.28;100.00
13348;BME280;6743;49.934;9.138;2022-12-29T01:16:06;99813.97;;;10.25;100.00
13348;BME280;6743;49.934;9.138;2022-12-29T01:18:33;99803.91;;;10.21;100.00
13348;BME280;6743;49.934;9.138;2022-12-29T01:21:00;99806.22;;;10.16;100.00
13348;BME280;6743;49.934;9.138;2022-12-29T01:23:26;99805.25;;;10.09;100.00
13348;BME280;6743;49.934;9.138;2022-12-29T01:25:52;99805.44;;;10.07;100.00
13348;BME280;6743;49.934;9.138;2022-12-29T01:28:18;99806.12;;;10.01;100.00
13348;BME280;6743;49.934;9.138;2022-12-29T01:30:44;99802.97;;;9.98;100.00
13348;BME280;6743;49.934;9.138;2022-12-29T01:33:11;99791.41;;;9.91;100.00
13348;BME280;6743;49.934;9.138;2022-12-29T01:35:37;99795.72;;;9.92;100.00
13348;BME280;6743;49.934;9.138;2022-12-29T01:38:03;99798.06;;;9.86;100.00
13348;BME280;6743;49.934;9.138;2022-12-29T01:40:29;99794.09;;;9.82;100.00
13348;BME280;6743;49.934;9.138;2022-12-29T01:42:55;99789.16;;;9.79;100.00
13348;BME280;6743;49.934;9.138;2022-12-29T01:45:21;99789.47;;;9.76;100.00
13348;BME280;6743;49.934;9.138;2022-12-29T01:47:50;99785.38;;;9.74;100.00
13348;BME280;6743;49.934;9.138;2022-12-29T01:50:20;99790.16;;;9.70;100.00
13348;BME280;6743;49.934;9.138;2022-12-29T01:52:51;99776.25;;;9.68;100.00
13348;BME280;6743;49.934;9.138;2022-12-29T01:55:21;99771.16;;;9.67;100.00
13348;BME280;6743;49.934;9.138;2022-12-29T01:57:49;99781.25;;;9.63;100.00
13348;BME280;6743;49.934;9.138;2022-12-29T02:00:21;99785.72;;;9.63;100.00
13348;BME280;6743;49.934;9.138;2022-12-29T02:02:51;99773.47;;;9.62;100.00
13348;BME280;6743;49.934;9.138;2022-12-29T02:05:23;99765.72;;;9.60;100.00
13348;BME280;6743;49.934;9.138;2022-12-29T02:07:50;99765.72;;;9.60;100.00
13348;BME280;6743;49.934;9.138;2022-12-29T02:10:20;99762.41;;;9.58;100.00
13348;BME280;6743;49.934;9.138;2022-12-29T02:12:47;99756.28;;;9.49;100.00
13348;BME280;6743;49.934;9.138;2022-12-29T02:15:13;99769.50;;;9.58;100.00
13348;BME280;6743;49.934;9.138;2022-12-29T02:17:57;99759.44;;;9.53;100.00
13348;BME280;6743;49.934;9.138;2022-12-29T02:21:00;99768.53;;;9.59;100.00
13348;BME280;6743;49.934;9.138;2022-12-29T02:23:46;99769.00;;;9.62;100.00
13348;BME280;6743;49.934;9.138;2022-12-29T02:26:44;99753.28;;;9.61;100.00
13348;BME280;6743;49.934;9.138;2022-12-29T02:29:40;99766.00;;;9.65;100.00
13348;BME280;6743;49.934;9.138;2022-12-29T02:32:19;99765.03;;;9.66;100.00
13348;BME280;6743;49.934;9.138;2022-12-29T02:34:52;99769.97;;;9.69;100.00
13348;BME280;6743;49.934;9.138;2022-12-29T02:37:25;99766.31;;;9.70;100.00
13348;BME280;6743;49.934;9.138;2022-12-29T02:39:59;99785.16;;;9.75;100.00
13348;BME280;6743;49.934;9.138;2022-12-29T02:42:35;99778.19;;;9.82;100.00
13348;BME280;6743;49.934;9.138;2022-12-29T02:45:04;99779.69;;;9.85;100.00
13348;BME280;6743;49.934;9.138;2022-12-29T02:47:36;99774.38;;;9.85;100.00
13348;BME280;6743;49.934;9.138;2022-12-29T02:50:08;99769.91;;;9.85;100.00
13348;BME280;6743;49.934;9.138;2022-12-29T02:52:43;99765.78;;;9.83;100.00
13348;BME280;6743;49.934;9.138;2022-12-29T02:55:12;99772.41;;;9.87;100.00
13348;BME280;6743;49.934;9.138;2022-12-29T02:57:38;99770.56;;;9.87;100.00
13348;BME280;6743;49.934;9.138;2022-12-29T03:00:06;99758.31;;;9.86;100.00
13348;BME280;6743;49.934;9.138;2022-12-29T03:02:46;99756.34;;;9.88;100.00
13348;BME280;6743;49.934;9.138;2022-12-29T03:05:22;99749.19;;;9.89;100.00
13348;BME280;6743;49.934;9.138;2022-12-29T03:08:02;99749.84;;;9.91;100.00
13348;BME280;6743;49.934;9.138;2022-12-29T03:10:37;99752.50;;;9.91;100.00
13348;BME280;6743;49.934;9.138;2022-12-29T03:13:12;99753.31;;;9.92;100.00
13348;BME280;6743;49.934;9.138;2022-12-29T03:16:06;99756.13;;;9.90;100.00
13348;BME280;6743;49.934;9.138;2022-12-29T03:18:40;99748.19;;;9.90;100.00
13348;BME280;6743;49.934;9.138;2022-12-29T03:21:12;99749.00;;;9.91;100.00
13348;BME280;6743;49.934;9.138;2022-12-29T03:23:42;99727.81;;;9.91;100.00
13348;BME280;6743;49.934;9.138;2022-12-29T03:26:11;99744.53;;;9.91;100.00
13348;BME280;6743;49.934;9.138;2022-12-29T03:28:40;99743.56;;;9.92;100.00
13348;BME280;6743;49.934;9.138;2022-12-29T03:31:08;99735.59;;;9.92;100.00
13348;BME280;6743;49.934;9.138;2022-12-29T03:33:39;99727.50;;;9.94;100.00
13348;BME280;6743;49.934;9.138;2022-12-29T03:36:10;99734.59;;;9.93;100.00
13348;BME280;6743;49.934;9.138;2022-12-29T03:38:46;99741.56;;;9.94;100.00
13348;BME280;6743;49.934;9.138;2022-12-29T03:41:17;99734.25;;;9.96;100.00
13348;BME280;6743;49.934;9.138;2022-12-29T03:43:45;99745.34;;;10.00;100.00
13348;BME280;6743;49.934;9.138;2022-12-29T03:46:11;99733.91;;;9.99;100.00
13348;BME280;6743;49.934;9.138;2022-12-29T03:48:37;99716.06;;;9.93;100.00
13348;BME280;6743;49.934;9.138;2022-12-29T03:51:04;99731.91;;;10.01;100.00
13348;BME280;6743;49.934;9.138;2022-12-29T03:53:30;99723.97;;;10.01;100.00
13348;BME280;6743;49.934;9.138;2022-12-29T03:55:56;99711.56;;;10.02;100.00
13348;BME280;6743;49.934;9.138;2022-12-29T03:58:22;99719.97;;;10.05;100.00
13348;BME280;6743;49.934;9.138;2022-12-29T04:00:48;99709.84;;;10.09;100.00
13348;BME280;6743;49.934;9.138;2022-12-29T04:03:14;99695.56;;;10.10;100.00
13348;BME280;6743;49.934;9.138;2022-12-29T04:05:40;99698.06;;;10.11;100.00
13348;BME280;6743;49.934;9.138;2022-12-29T04:08:07;99696.41;;;10.10;100.00
13348;BME280;6743;49.934;9.138;2022-12-29T04:10:33;99678.50;;;10.12;100.00
13348;BME280;6743;49.934;9.138;2022-12-29T04:12:59;99686.28;;;10.14;100.00
13348;BME280;6743;49.934;9.138;2022-12-29T04:15:25;99689.78;;;10.14;100.00
13348;BME280;6743;49.934;9.138;2022-12-29T04:17:51;99682.97;;;10.12;100.00
13348;BME280;6743;49.934;9.138;2022-12-29T04:20:17;99691.59;;;10.14;100.00
13348;BME280;6743;49.934;9.138;2022-12-29T04:23:03;99683.47;;;10.15;100.00
13348;BME280;6743;49.934;9.138;2022-12-29T04:25:32;99678.00;;;10.17;100.00
13348;BME280;6743;49.934;9.138;2022-12-29T04:27:59;99689.25;;;10.19;100.00
13348;BME280;6743;49.934;9.138;2022-12-29T04:30:26;99688.28;;;10.20;100.00
13348;BME280;6743;49.934;9.138;2022-12-29T04:32:52;99692.03;;;10.25;100.00
13348;BME280;6743;49.934;9.138;2022-12-29T04:35:19;99683.91;;;10.27;100.00
13348;BME280;6743;49.934;9.138;2022-12-29T04:37:45;99677.25;;;10.31;100.00
13348;BME280;6743;49.934;9.138;2022-12-29T04:40:11;99683.19;;;10.33;100.00
13348;BME280;6743;49.934;9.138;2022-12-29T04:42:38;99678.56;;;10.35;100.00
13348;BME280;6743;49.934;9.138;2022-12-29T04:45:05;99683.97;;;10.42;100.00
13348;BME280;6743;49.934;9.138;2022-12-29T04:47:31;99675.84;;;10.43;100.00
13348;BME280;6743;49.934;9.138;2022-12-29T04:49:57;99680.94;;;10.45;100.00
13348;BME280;6743;49.934;9.138;2022-12-29T04:52:23;99669.50;;;10.44;100.00
13348;BME280;6743;49.934;9.138;2022-12-29T04:54:49;99671.00;;;10.47;100.00
13348;BME280;6743;49.934;9.138;2022-12-29T04:57:15;99671.00;;;10.47;100.00
13348;BME280;6743;49.934;9.138;2022-12-29T04:59:42;99681.44;;;10.48;100.00
13348;BME280;6743;49.934;9.138;2022-12-29T05:02:08;99684.91;;;10.49;100.00
13348;BME280;6743;49.934;9.138;2022-12-29T05:04:34;99665.34;;;10.50;100.00
13348;BME280;6743;49.934;9.138;2022-12-29T05:07:00;99685.69;;;10.57;100.00
13348;BME280;6743;49.934;9.138;2022-12-29T05:09:25;99677.34;;;10.60;100.00
13348;BME280;6743;49.934;9.138;2022-12-29T05:11:51;99671.03;;;10.61;100.00
13348;BME280;6743;49.934;9.138;2022-12-29T05:14:17;99672.69;;;10.62;100.00
13348;BME280;6743;49.934;9.138;2022-12-29T05:16:44;99668.38;;;10.61;100.00
13348;BME280;6743;49.934;9.138;2022-12-29T05:19:10;99677.28;;;10.69;100.00
13348;BME280;6743;49.934;9.138;2022-12-29T05:21:36;99677.28;;;10.69;100.00
13348;BME280;6743;49.934;9.138;2022-12-29T05:24:02;99677.28;;;10.69;100.00
13348;BME280;6743;49.934;9.138;2022-12-29T05:26:28;99667.66;;;10.68;100.00
13348;BME280;6743;49.934;9.138;2022-12-29T05:28:54;99666.84;;;10.67;100.00
13348;BME280;6743;49.934;9.138;2022-12-29T05:31:20;99673.97;;;10.66;100.00
13348;BME280;6743;49.934;9.138;2022-12-29T05:33:47;99677.44;;;10.67;100.00
13348;BME280;6743;49.934;9.138;2022-12-29T05:36:13;99673.97;;;10.66;100.00
13348;BME280;6743;49.934;9.138;2022-12-29T05:38:39;99680.94;;;10.68;100.00
13348;BME280;6743;49.934;9.138;2022-12-29T05:41:05;99648.72;;;10.56;100.00
13348;BME280;6743;49.934;9.138;2022-12-29T05:43:31;99666.19;;;10.65;100.00
13348;BME280;6743;49.934;9.138;2022-12-29T05:45:57;99668.03;;;10.64;100.00
13348;BME280;6743;49.934;9.138;2022-12-29T05:48:23;99665.56;;;10.63;100.00
13348;BME280;6743;49.934;9.138;2022-12-29T05:50:50;99684.12;;;10.63;100.00
13348;BME280;6743;49.934;9.138;2022-12-29T05:53:17;99683.75;;;10.66;100.00
13348;BME280;6743;49.934;9.138;2022-12-29T05:55:44;99684.59;;;10.66;100.00
13348;BME280;6743;49.934;9.138;2022-12-29T05:58:10;99684.06;;;10.71;100.00
13348;BME280;6743;49.934;9.138;2022-12-29T06:00:36;99691.19;;;10.71;100.00
13348;BME280;6743;49.934;9.138;2022-12-29T06:03:02;99674.44;;;10.70;100.00
13348;BME280;6743;49.934;9.138;2022-12-29T06:05:28;99678.38;;;10.74;100.00
13348;BME280;6743;49.934;9.138;2022-12-29T06:07:55;99676.38;;;10.76;100.00
13348;BME280;6743;49.934;9.138;2022-12-29T06:10:21;99680.03;;;10.75;100.00
13348;BME280;6743;49.934;9.138;2022-12-29T06:12:47;99678.56;;;10.73;100.00
13348;BME280;6743;49.934;9.138;2022-12-29T06:15:14;99663.75;;;10.63;100.00
13348;BME280;6743;49.934;9.138;2022-12-29T06:17:40;99660.38;;;10.70;100.00
13348;BME280;6743;49.934;9.138;2022-12-29T06:20:07;99678.75;;;10.71;100.00
13348;BME280;6743;49.934;9.138;2022-12-29T06:22:33;99682.88;;;10.74;100.00
13348;BME280;6743;49.934;9.138;2022-12-29T06:25:00;99673.72;;;10.76;100.00
13348;BME280;6743;49.934;9.138;2022-12-29T06:27:26;99676.38;;;10.76;100.00
13348;BME280;6743;49.934;9.138;2022-12-29T06:29:53;99680.87;;;10.76;100.00
13348;BME280;6743;49.934;9.138;2022-12-29T06:32:19;99687.16;;;10.75;100.00
13348;BME280;6743;49.934;9.138;2022-12-29T06:34:46;99679.38;;;10.73;100.00
13348;BME280;6743;49.934;9.138;2022-12-29T06:37:12;99680.22;;;10.74;100.00
13348;BME280;6743;49.934;9.138;2022-12-29T06:39:38;99680.22;;;10.74;100.00
13348;BME280;6743;49.934;9.138;2022-12-29T06:42:05;99696.78;;;10.76;100.00
13348;BME280;6743;49.934;9.138;2022-12-29T06:44:31;99687.44;;;10.80;100.00
13348;BME280;6743;49.934;9.138;2022-12-29T06:46:57;99696.72;;;10.84;100.00
13348;BME280;6743;49.934;9.138;2022-12-29T06:49:23;99688.37;;;10.87;100.00
13348;BME280;6743;49.934;9.138;2022-12-29T06:51:49;99691.69;;;10.89;100.00
13348;BME280;6743;49.934;9.138;2022-12-29T06:54:15;99686.34;;;10.74;100.00
13348;BME280;6743;49.934;9.138;2022-12-29T06:56:41;99687.03;;;10.91;100.00
13348;BME280;6743;49.934;9.138;2022-12-29T06:59:08;99679.91;;;10.91;100.00
13348;BME280;6743;49.934;9.138;2022-12-29T07:01:36;99665.16;;;10.89;100.00
13348;BME280;6743;49.934;9.138;2022-12-29T07:04:03;99680.16;;;10.96;100.00
13348;BME280;6743;49.934;9.138;2022-12-29T07:06:29;99682.00;;;10.96;100.00
13348;BME280;6743;49.934;9.138;2022-12-29T07:08:55;99669.72;;;10.95;100.00
13348;BME280;6743;49.934;9.138;2022-12-29T07:11:23;99679.34;;;10.96;100.00
13348;BME280;6743;49.934;9.138;2022-12-29T07:13:49;99676.03;;;10.94;100.00
13348;BME280;6743;49.934;9.138;2022-12-29T07:16:16;99662.22;;;10.84;100.00
13348;BME280;6743;49.934;9.138;2022-12-29T07:18:42;99677.41;;;10.90;100.00
13348;BME280;6743;49.934;9.138;2022-12-29T07:21:08;99669.62;;;10.88;100.00
13348;BME280;6743;49.934;9.138;2022-12-29T07:23:34;99678.25;;;10.90;100.00
13348;BME280;6743;49.934;9.138;2022-12-29T07:26:01;99679.06;;;10.91;100.00
13348;BME280;6743;49.934;9.138;2022-12-29T07:28:28;99668.28;;;10.92;100.00
13348;BME280;6743;49.934;9.138;2022-12-29T07:30:54;99674.38;;;10.93;100.00
13348;BME280;6743;49.934;9.138;2022-12-29T07:33:20;99673.37;;;10.94;100.00
13348;BME280;6743;49.934;9.138;2022-12-29T07:35:46;99668.91;;;10.94;100.00
13348;BME280;6743;49.934;9.138;2022-12-29T07:38:12;99682.81;;;10.96;100.00
13348;BME280;6743;49.934;9.138;2022-12-29T07:40:38;99657.66;;;10.92;100.00
13348;BME280;6743;49.934;9.138;2022-12-29T07:43:05;99674.31;;;11.01;100.00
13348;BME280;6743;49.934;9.138;2022-12-29T07:45:30;99677.12;;;10.99;100.00
13348;BME280;6743;49.934;9.138;2022-12-29T07:47:56;99679.63;;;11.01;100.00
13348;BME280;6743;49.934;9.138;2022-12-29T07:50:23;99681.44;;;11.00;100.00
13348;BME280;6743;49.934;9.138;2022-12-29T07:52:49;99686.75;;;11.00;100.00
13348;BME280;6743;49.934;9.138;2022-12-29T07:55:15;99682.44;;;10.99;100.00
13348;BME280;6743;49.934;9.138;2022-12-29T07:57:42;99681.66;;;10.99;100.00
13348;BME280;6743;49.934;9.138;2022-12-29T08:00:08;99693.88;;;11.00;100.00
13348;BME280;6743;49.934;9.138;2022-12-29T08:02:35;99670.66;;;11.02;100.00
13348;BME280;6743;49.934;9.138;2022-12-29T08:05:01;99686.41;;;11.03;100.00
13348;BME280;6743;49.934;9.138;2022-12-29T08:07:28;99694.81;;;11.07;100.00
13348;BME280;6743;49.934;9.138;2022-12-29T08:09:54;99684.41;;;11.05;100.00
13348;BME280;6743;49.934;9.138;2022-12-29T08:12:20;99668.38;;;10.99;100.00
13348;BME280;6743;49.934;9.138;2022-12-29T08:14:46;99698.50;;;11.06;100.00
13348;BME280;6743;49.934;9.138;2022-12-29T08:17:12;99696.84;;;11.05;100.00
13348;BME280;6743;49.934;9.138;2022-12-29T08:19:38;99701.94;;;11.06;100.00
13348;BME280;6743;49.934;9.138;2022-12-29T08:22:05;99686.13;;;10.98;100.00
13348;BME280;6743;49.934;9.138;2022-12-29T08:24:31;99694.91;;;11.14;100.00
13348;BME280;6743;49.934;9.138;2022-12-29T08:26:57;99705.63;;;11.20;100.00
13348;BME280;6743;49.934;9.138;2022-12-29T08:29:23;99717.53;;;11.24;100.00
13348;BME280;6743;49.934;9.138;2022-12-29T08:31:49;99695.66;;;11.22;100.00
13348;BME280;6743;49.934;9.138;2022-12-29T08:34:15;99701.72;;;11.31;100.00
13348;BME280;6743;49.934;9.138;2022-12-29T08:36:41;99706.19;;;11.30;100.00
13348;BME280;6743;49.934;9.138;2022-12-29T08:39:07;99708.66;;;11.32;100.00
13348;BME280;6743;49.934;9.138;2022-12-29T08:41:34;99704.19;;;11.32;100.00
13348;BME280;6743;49.934;9.138;2022-12-29T08:44:00;99701.53;;;11.32;100.00
13348;BME280;6743;49.934;9.138;2022-12-29T08:46:26;99703.44;;;11.24;100.00
13348;BME280;6743;49.934;9.138;2022-12-29T08:48:53;99714.97;;;11.31;100.00
13348;BME280;6743;49.934;9.138;2022-12-29T08:51:19;99720.28;;;11.31;100.00
13348;BME280;6743;49.934;9.138;2022-12-29T08:53:45;99715.97;;;11.30;100.00
13348;BME280;6743;49.934;9.138;2022-12-29T08:56:11;99715.97;;;11.30;100.00
13348;BME280;6743;49.934;9.138;2022-12-29T08:58:37;99711.50;;;11.30;100.00
13348;BME280;6743;49.934;9.138;2022-12-29T09:01:04;99720.75;;;11.34;100.00
13348;BME280;6743;49.934;9.138;2022-12-29T09:03:30;99713.59;;;11.35;100.00
13348;BME280;6743;49.934;9.138;2022-12-29T09:05:58;99717.72;;;11.37;100.00
13348;BME280;6743;49.934;9.138;2022-12-29T09:08:24;99714.91;;;11.39;100.00
13348;BME280;6743;49.934;9.138;2022-12-29T09:10:51;99726.34;;;11.39;100.00
13348;BME280;6743;49.934;9.138;2022-12-29T09:13:18;99727.78;;;11.42;100.00
13348;BME280;6743;49.934;9.138;2022-12-29T09:15:45;99716.34;;;11.41;100.00
13348;BME280;6743;49.934;9.138;2022-12-29T09:18:11;99721.31;;;11.44;100.00
13348;BME280;6743;49.934;9.138;2022-12-29T09:20:38;99721.31;;;11.44;100.00
13348;BME280;6743;49.934;9.138;2022-12-29T09:23:04;99720.94;;;11.48;100.00
13348;BME280;6743;49.934;9.138;2022-12-29T09:25:31;99729.84;;;11.55;100.00
13348;BME280;6743;49.934;9.138;2022-12-29T09:27:57;99712.16;;;11.47;100.00
13348;BME280;6743;49.934;9.138;2022-12-29T09:30:24;99723.97;;;11.59;100.00
13348;BME280;6743;49.934;9.138;2022-12-29T09:32:51;99730.94;;;11.60;100.00
13348;BME280;6743;49.934;9.138;2022-12-29T09:35:17;99737.69;;;11.63;100.00
13348;BME280;6743;49.934;9.138;2022-12-29T09:37:43;99726.78;;;11.58;100.00
13348;BME280;6743;49.934;9.138;2022-12-29T09:40:21;99731.19;;;11.65;100.00
13348;BME280;6743;49.934;9.138;2022-12-29T09:43:13;99731.00;;;11.67;100.00
13348;BME280;6743;49.934;9.138;2022-12-29T09:45:44;99732.94;;;11.73;100.00
13348;BME280;6743;49.934;9.138;2022-12-29T09:48:16;99725.44;;;11.76;100.00
13348;BME280;6743;49.934;9.138;2022-12-29T09:50:48;99735.31;;;11.82;100.00
13348;BME280;6743;49.934;9.138;2022-12-29T09:53:20;99752.72;;;11.85;100.00
13348;BME280;6743;49.934;9.138;2022-12-29T09:55:49;99738.44;;;11.86;100.00
13348;BME280;6743;49.934;9.138;2022-12-29T09:58:21;99739.44;;;11.85;100.00
13348;BME280;6743;49.934;9.138;2022-12-29T10:00:56;99750.91;;;11.86;100.00
13348;BME280;6743;49.934;9.138;2022-12-29T10:03:33;99756.03;;;11.87;100.00
13348;BME280;6743;49.934;9.138;2022-12-29T10:06:09;99759.34;;;11.89;100.00
13348;BME280;6743;49.934;9.138;2022-12-29T10:08:39;99751.38;;;11.89;100.00
13348;BME280;6743;49.934;9.138;2022-12-29T10:11:15;99761.19;;;11.89;100.00
13348;BME280;6743;49.934;9.138;2022-12-29T10:13:59;99752.81;;;11.92;100.00
13348;BME280;6743;49.934;9.138;2022-12-29T10:16:37;99737.69;;;11.92;100.00
13348;BME280;6743;49.934;9.138;2022-12-29T10:19:22;99743.00;;;11.92;100.00
13348;BME280;6743;49.934;9.138;2022-12-29T10:22:03;99740.53;;;11.91;100.00
13348;BME280;6743;49.934;9.138;2022-12-29T10:24:34;99747.88;;;11.89;100.00
13348;BME280;6743;49.934;9.138;2022-12-29T10:27:03;99739.25;;;11.87;100.00
13348;BME280;6743;49.934;9.138;2022-12-29T10:29:33;99738.09;;;11.89;100.00
13348;BME280;6743;49.934;9.138;2022-12-29T10:32:05;99730.28;;;11.88;100.00
13348;BME280;6743;49.934;9.138;2022-12-29T10:34:36;99731.12;;;11.88;100.00
13348;BME280;6743;49.934;9.138;2022-12-29T10:37:05;99725.78;;;11.88;100.00
13348;BME280;6743;49.934;9.138;2022-12-29T10:39:40;99735.84;;;11.93;100.00
13348;BME280;6743;49.934;9.138;2022-12-29T10:42:13;99733.66;;;11.96;100.00
13348;BME280;6743;49.934;9.138;2022-12-29T10:44:41;99723.47;;;12.00;100.00
13348;BME280;6743;49.934;9.138;2022-12-29T10:47:12;99732.91;;;12.02;100.00
13348;BME280;6743;49.934;9.138;2022-12-29T10:49:42;99747.84;;;12.03;100.00
13348;BME280;6743;49.934;9.138;2022-12-29T10:52:09;99752.22;;;12.11;100.00
13348;BME280;6743;49.934;9.138;2022-12-29T10:54:41;99751.22;;;12.12;100.00
13348;BME280;6743;49.934;9.138;2022-12-29T10:57:16;99751.97;;;12.06;100.00
13348;BME280;6743;49.934;9.138;2022-12-29T10:59:44;99753.97;;;12.04;100.00
13348;BME280;6743;49.934;9.138;2022-12-29T11:02:36;99770.72;;;12.19;100.00
13348;BME280;6743;49.934;9.138;2022-12-29T11:05:12;99771.38;;;12.21;100.00
13348;BME280;6743;49.934;9.138;2022-12-29T11:07:43;99776.06;;;12.19;100.00
13348;BME280;6743;49.934;9.138;2022-12-29T11:10:21;99784.84;;;12.19;100.00
13348;BME280;6743;49.934;9.138;2022-12-29T11:12:56;99800.47;;;12.08;100.00
13348;BME280;6743;49.934;9.138;2022-12-29T11:15:22;99802.56;;;11.83;100.00
13348;BME280;6743;49.934;9.138;2022-12-29T11:17:51;99798.44;;;11.51;100.00
13348;BME280;6743;49.934;9.138;2022-12-29T11:20:30;99753.88;;;11.24;100.00
13348;BME280;6743;49.934;9.138;2022-12-29T11:22:57;99772.19;;;11.19;100.00
13348;BME280;6743;49.934;9.138;2022-12-29T11:25:23;99769.25;;;11.14;100.00
13348;BME280;6743;49.934;9.138;2022-12-29T11:27:55;99759.44;;;11.14;100.00
13348;BME280;6743;49.934;9.138;2022-12-29T11:30:23;99759.75;;;11.19;100.00
13348;BME280;6743;49.934;9.138;2022-12-29T11:32:50;99789.31;;;11.16;100.00
13348;BME280;6743;49.934;9.138;2022-12-29T11:35:30;99765.37;;;11.01;100.00
13348;BME280;6743;49.934;9.138;2022-12-29T11:37:57;99788.59;;;10.99;100.00
13348;BME280;6743;49.934;9.138;2022-12-29T11:40:24;99803.19;;;11.03;100.00
13348;BME280;6743;49.934;9.138;2022-12-29T11:42:53;99797.72;;;11.05;100.00
13348;BME280;6743;49.934;9.138;2022-12-29T11:45:22;99805.84;;;11.03;100.00
13348;BME280;6743;49.934;9.138;2022-12-29T11:47:51;99810.66;;;11.00;100.00
13348;BME280;6743;49.934;9.138;2022-12-29T11:50:21;99811.69;;;10.99;100.00
13348;BME280;6743;49.934;9.138;2022-12-29T11:52:51;99822.66;;;10.96;100.00
13348;BME280;6743;49.934;9.138;2022-12-29T11:55:25;99820.34;;;10.93;100.00
13348;BME280;6743;49.934;9.138;2022-12-29T11:57:52;99815.22;;;10.91;100.00
13348;BME280;6743;49.934;9.138;2022-12-29T12:00:22;99805.63;;;10.90;100.00
13348;BME280;6743;49.934;9.138;2022-12-29T12:02:54;99795.19;;;10.89;100.00
13348;BME280;6743;49.934;9.138;2022-12-29T12:05:26;99807.56;;;10.96;100.00
13348;BME280;6743;49.934;9.138;2022-12-29T12:07:58;99796.41;;;11.01;100.00
13348;BME280;6743;49.934;9.138;2022-12-29T12:10:28;99793.22;;;11.05;100.00
13348;BME280;6743;49.934;9.138;2022-12-29T12:13:05;99799.16;;;11.07;100.00
13348;BME280;6743;49.934;9.138;2022-12-29T12:15:36;99794.16;;;11.13;100.00
13348;BME280;6743;49.934;9.138;2022-12-29T12:18:08;99793.63;;;11.17;100.00
13348;BME280;6743;49.934;9.138;2022-12-29T12:20:42;99794.72;;;11.23;100.00
13348;BME280;6743;49.934;9.138;2022-12-29T12:23:22;99792.34;;;11.28;100.00
13348;BME280;6743;49.934;9.138;2022-12-29T12:25:57;99805.91;;;11.33;100.00
13348;BME280;6743;49.934;9.138;2022-12-29T12:28:36;99799.41;;;11.35;100.00
13348;BME280;6743;49.934;9.138;2022-12-29T12:31:05;99807.69;;;11.40;100.00
13348;BME280;6743;49.934;9.138;2022-12-29T12:33:42;99816.09;;;11.44;100.00
13348;BME280;6743;49.934;9.138;2022-12-29T12:36:20;99816.75;;;11.46;100.00
13348;BME280;6743;49.934;9.138;2022-12-29T12:38:54;99816.38;;;11.49;100.00
13348;BME280;6743;49.934;9.138;2022-12-29T12:41:27;99802.56;;;11.54;100.00
13348;BME280;6743;49.934;9.138;2022-12-29T12:44:00;99808.50;;;11.56;100.00
13348;BME280;6743;49.934;9.138;2022-12-29T12:46:52;99800.00;;;11.60;100.00
13348;BME280;6743;49.934;9.138;2022-12-29T12:49:56;99788.16;;;11.63;100.00
13348;BME280;6743;49.934;9.138;2022-12-29T12:52:33;99801.53;;;11.69;100.00
13348;BME280;6743;49.934;9.138;2022-12-29T12:55:18;99798.38;;;11.74;100.00
13348;BME280;6743;49.934;9.138;2022-12-29T12:57:54;99815.16;;;11.74;100.00
13348;BME280;6743;49.934;9.138;2022-12-29T13:00:22;99809.84;;;11.74;100.00
13348;BME280;6743;49.934;9.138;2022-12-29T13:02:59;99794.03;;;11.73;100.00
13348;BME280;6743;49.934;9.138;2022-12-29T13:05:40;99812.16;;;11.69;100.00
13348;BME280;6743;49.934;9.138;2022-12-29T13:08:28;99798.25;;;11.67;100.00
13348;BME280;6743;49.934;9.138;2022-12-29T13:11:04;99796.97;;;11.63;100.00
13348;BME280;6743;49.934;9.138;2022-12-29T13:13:48;99788.81;;;11.65;100.00
13348;BME280;6743;49.934;9.138;2022-12-29T13:16:23;99792.66;;;11.62;100.00
13348;BME280;6743;49.934;9.138;2022-12-29T13:18:59;99786.72;;;11.60;100.00